createdAt,value
2018-04-22T00:00:31.425Z,4.00
2018-04-22T00:01:31.406Z,4.00
2018-04-22T00:02:31.386Z,4.00
2018-04-22T00:03:31.367Z,0.00
2018-04-22T00:04:31.348Z,0.00
2018-04-22T00:05:31.327Z,4.00
2018-04-22T00:06:31.308Z,4.00
2018-04-22T00:07:31.288Z,0.00
2018-04-22T00:08:31.269Z,0.00
2018-04-22T00:09:31.249Z,4.00
2018-04-22T00:10:31.229Z,0.00
2018-04-22T00:11:31.212Z,0.00
2018-04-22T00:12:31.192Z,4.00
2018-04-22T00:13:31.172Z,4.00
2018-04-22T00:14:31.153Z,4.00
2018-04-22T00:15:31.137Z,0.00
2018-04-22T00:16:31.113Z,4.00
2018-04-22T00:17:31.094Z,0.00
2018-04-22T00:18:31.074Z,4.00
2018-04-22T00:19:31.055Z,0.00
2018-04-22T00:20:31.035Z,0.00
2018-04-22T00:21:31.014Z,0.00
2018-04-22T00:22:30.996Z,4.00
2018-04-22T00:23:30.976Z,0.00
2018-04-22T00:24:30.956Z,4.00
2018-04-22T00:25:31.687Z,4.00
2018-04-22T00:26:30.916Z,0.00
2018-04-22T00:27:30.898Z,4.00
2018-04-22T00:28:30.877Z,0.00
2018-04-22T00:29:30.858Z,0.00
2018-04-22T00:30:30.840Z,0.00
2018-04-22T00:31:30.818Z,0.00
2018-04-22T00:32:30.800Z,0.00
2018-04-22T00:33:30.779Z,4.00
2018-04-22T00:34:30.759Z,4.00
2018-04-22T00:35:30.739Z,0.00
2018-04-22T00:36:30.720Z,0.00
2018-04-22T00:37:30.700Z,0.00
2018-04-22T00:38:30.680Z,0.00
2018-04-22T00:39:30.660Z,4.00
2018-04-22T00:40:30.641Z,4.00
2018-04-22T00:41:32.121Z,4.00
2018-04-22T00:42:30.602Z,0.00
2018-04-22T00:43:30.595Z,0.00
2018-04-22T00:44:30.563Z,4.00
2018-04-22T00:45:30.542Z,4.00
2018-04-22T00:46:30.521Z,4.00
2018-04-22T00:47:30.604Z,0.00
2018-04-22T00:48:30.482Z,4.00
2018-04-22T00:49:30.464Z,4.00
2018-04-22T00:50:30.443Z,4.00
2018-04-22T00:51:30.424Z,4.00
2018-04-22T00:52:30.403Z,0.00
2018-04-22T00:53:30.386Z,4.00
2018-04-22T00:54:30.365Z,0.00
2018-04-22T00:55:30.347Z,4.00
2018-04-22T00:56:30.325Z,4.00
2018-04-22T00:57:30.310Z,4.00
2018-04-22T00:58:30.287Z,4.00
2018-04-22T00:59:30.266Z,4.00
2018-04-22T01:00:30.246Z,4.00
2018-04-22T01:01:30.227Z,4.00
2018-04-22T01:02:30.211Z,4.00
2018-04-22T01:03:30.186Z,4.00
2018-04-22T01:04:30.166Z,4.00
2018-04-22T01:05:30.146Z,4.00
2018-04-22T01:06:30.129Z,4.00
2018-04-22T01:07:30.108Z,4.00
2018-04-22T01:08:30.088Z,4.00
2018-04-22T01:09:30.067Z,4.00
2018-04-22T01:10:30.050Z,0.00
2018-04-22T01:11:30.034Z,0.00
2018-04-22T01:12:30.014Z,4.00
2018-04-22T01:13:29.988Z,4.00
2018-04-22T01:14:29.972Z,4.00
2018-04-22T01:15:29.948Z,4.00
2018-04-22T01:16:29.927Z,4.00
2018-04-22T01:17:29.907Z,4.00
2018-04-22T01:18:29.888Z,4.00
2018-04-22T01:19:29.869Z,4.00
2018-04-22T01:20:29.848Z,0.00
2018-04-22T01:21:29.828Z,0.00
2018-04-22T01:22:29.809Z,0.00
2018-04-22T01:23:29.791Z,4.00
2018-04-22T01:24:29.773Z,4.00
2018-04-22T01:25:29.749Z,4.00
2018-04-22T01:26:29.730Z,4.00
2018-04-22T01:27:29.710Z,4.00
2018-04-22T01:28:29.691Z,4.00
2018-04-22T01:29:29.674Z,4.00
2018-04-22T01:30:29.652Z,0.00
2018-04-22T01:31:29.631Z,4.00
2018-04-22T01:32:29.610Z,4.00
2018-04-22T01:33:29.592Z,4.00
2018-04-22T01:34:29.572Z,4.00
2018-04-22T01:35:30.305Z,4.00
2018-04-22T01:36:29.531Z,4.00
2018-04-22T01:37:29.513Z,4.00
2018-04-22T01:38:29.490Z,4.00
2018-04-22T01:39:29.471Z,4.00
2018-04-22T01:40:29.449Z,4.00
2018-04-22T01:41:29.429Z,4.00
2018-04-22T01:42:29.410Z,4.00
2018-04-22T01:43:29.390Z,0.00
2018-04-22T01:44:29.369Z,4.00
2018-04-22T01:45:29.348Z,4.00
2018-04-22T01:46:29.328Z,4.00
2018-04-22T01:47:29.309Z,4.00
2018-04-22T01:48:29.286Z,4.00
2018-04-22T01:49:29.266Z,4.00
2018-04-22T01:50:29.247Z,4.00
2018-04-22T01:51:29.226Z,4.00
2018-04-22T01:52:29.205Z,4.00
2018-04-22T01:53:29.185Z,4.00
2018-04-22T01:54:29.164Z,0.00
2018-04-22T01:55:29.144Z,4.00
2018-04-22T01:56:29.129Z,4.00
2018-04-22T01:57:29.107Z,4.00
2018-04-22T01:58:29.082Z,4.00
2018-04-22T01:59:29.064Z,4.00
2018-04-22T02:00:29.041Z,4.00
2018-04-22T02:01:29.020Z,4.00
2018-04-22T02:02:29.000Z,4.00
2018-04-22T02:03:28.980Z,4.00
2018-04-22T02:04:28.958Z,4.00
2018-04-22T02:05:28.937Z,0.00
2018-04-22T02:06:28.918Z,4.00
2018-04-22T02:07:28.897Z,4.00
2018-04-22T02:08:28.875Z,4.00
2018-04-22T02:09:28.854Z,0.00
2018-04-22T02:10:28.834Z,4.00
2018-04-22T02:11:28.814Z,4.00
2018-04-22T02:12:28.793Z,4.00
2018-04-22T02:13:28.773Z,4.00
2018-04-22T02:14:28.752Z,4.00
2018-04-22T02:15:28.731Z,4.00
2018-04-22T02:16:28.710Z,0.00
2018-04-22T02:17:28.689Z,0.00
2018-04-22T02:18:28.668Z,4.00
2018-04-22T02:19:28.648Z,4.00
2018-04-22T02:20:28.626Z,4.00
2018-04-22T02:21:28.606Z,4.00
2018-04-22T02:22:28.585Z,4.00
2018-04-22T02:23:28.565Z,4.00
2018-04-22T02:24:28.544Z,4.00
2018-04-22T02:25:28.526Z,4.00
2018-04-22T02:26:28.503Z,4.00
2018-04-22T02:27:28.483Z,0.00
2018-04-22T02:28:28.461Z,4.00
2018-04-22T02:29:28.445Z,4.00
2018-04-22T02:30:28.420Z,4.00
2018-04-22T02:31:28.399Z,4.00
2018-04-22T02:32:28.377Z,0.00
2018-04-22T02:33:28.356Z,4.00
2018-04-22T02:34:28.337Z,4.00
2018-04-22T02:35:28.315Z,4.00
2018-04-22T02:36:28.293Z,4.00
2018-04-22T02:37:28.274Z,0.00
2018-04-22T02:38:28.254Z,4.00
2018-04-22T02:39:28.235Z,4.00
2018-04-22T02:40:28.211Z,0.00
2018-04-22T02:41:28.191Z,4.00
2018-04-22T02:42:28.171Z,4.00
2018-04-22T02:43:28.156Z,4.00
2018-04-22T02:44:28.127Z,4.00
2018-04-22T02:45:28.107Z,4.00
2018-04-22T02:46:28.091Z,0.00
2018-04-22T02:47:28.066Z,4.00
2018-04-22T02:48:28.048Z,4.00
2018-04-22T02:49:28.024Z,4.00
2018-04-22T02:50:28.004Z,4.00
2018-04-22T02:51:27.983Z,4.00
2018-04-22T02:52:28.000Z,0.00
2018-04-22T02:53:27.943Z,0.00
2018-04-22T02:54:27.921Z,0.00
2018-04-22T02:55:27.903Z,4.00
2018-04-22T02:56:27.879Z,4.00
2018-04-22T02:57:27.857Z,4.00
2018-04-22T02:58:27.837Z,4.00
2018-04-22T02:59:27.815Z,4.00
2018-04-22T03:00:27.794Z,4.00
2018-04-22T03:01:27.773Z,4.00
2018-04-22T03:02:27.752Z,4.00
2018-04-22T03:03:27.734Z,4.00
2018-04-22T03:04:27.742Z,4.00
2018-04-22T03:05:27.689Z,4.00
2018-04-22T03:06:27.670Z,4.00
2018-04-22T03:07:27.648Z,4.00
2018-04-22T03:08:27.627Z,4.00
2018-04-22T03:09:27.607Z,4.00
2018-04-22T03:10:27.589Z,4.00
2018-04-22T03:11:27.564Z,4.00
2018-04-22T03:12:27.542Z,4.00
2018-04-22T03:13:27.521Z,4.00
2018-04-22T03:14:27.501Z,4.00
2018-04-22T03:15:27.481Z,0.00
2018-04-22T03:16:27.459Z,4.00
2018-04-22T03:17:27.439Z,0.00
2018-04-22T03:18:27.418Z,0.00
2018-04-22T03:19:27.398Z,0.00
2018-04-22T03:20:27.377Z,4.00
2018-04-22T03:21:27.354Z,4.00
2018-04-22T03:22:27.335Z,4.00
2018-04-22T03:23:27.317Z,4.00
2018-04-22T03:24:27.294Z,0.00
2018-04-22T03:25:27.276Z,4.00
2018-04-22T03:26:27.252Z,0.00
2018-04-22T03:27:27.230Z,0.00
2018-04-22T03:28:27.212Z,0.00
2018-04-22T03:29:27.192Z,4.00
2018-04-22T03:30:27.170Z,0.00
2018-04-22T03:31:27.149Z,0.00
2018-04-22T03:32:27.126Z,0.00
2018-04-22T03:33:27.104Z,0.00
2018-04-22T03:34:27.083Z,0.00
2018-04-22T03:35:27.062Z,0.00
2018-04-22T03:36:27.042Z,0.00
2018-04-22T03:37:27.020Z,0.00
2018-04-22T03:38:27.002Z,0.00
2018-04-22T03:39:26.981Z,0.00
2018-04-22T03:40:26.959Z,0.00
2018-04-22T03:41:28.438Z,0.00
2018-04-22T03:42:26.945Z,0.00
2018-04-22T03:43:26.896Z,0.00
2018-04-22T03:44:26.874Z,0.00
2018-04-22T03:45:26.859Z,0.00
2018-04-22T03:46:26.834Z,0.00
2018-04-22T03:47:26.814Z,0.00
2018-04-22T03:48:26.790Z,0.00
2018-04-22T03:49:26.771Z,0.00
2018-04-22T03:50:26.749Z,4.00
2018-04-22T03:51:26.730Z,4.00
2018-04-22T03:52:26.707Z,4.00
2018-04-22T03:53:26.686Z,4.00
2018-04-22T03:54:26.665Z,4.00
2018-04-22T03:55:26.644Z,4.00
2018-04-22T03:56:26.624Z,4.00
2018-04-22T03:57:26.603Z,4.00
2018-04-22T03:58:26.581Z,4.00
2018-04-22T03:59:26.566Z,4.00
2018-04-22T04:00:26.538Z,8.00
2018-04-22T04:01:26.518Z,4.00
2018-04-22T04:02:26.498Z,8.00
2018-04-22T04:03:26.477Z,8.00
2018-04-22T04:04:26.466Z,8.00
2018-04-22T04:05:26.434Z,12.00
2018-04-22T04:06:26.413Z,12.00
2018-04-22T04:07:26.393Z,16.00
2018-04-22T04:08:26.371Z,16.00
2018-04-22T04:09:26.350Z,20.00
2018-04-22T04:10:26.332Z,20.00
2018-04-22T04:11:26.306Z,24.00
2018-04-22T04:12:26.284Z,28.00
2018-04-22T04:13:26.264Z,32.00
2018-04-22T04:14:26.243Z,40.00
2018-04-22T04:15:26.223Z,44.00
2018-04-22T04:16:26.201Z,48.00
2018-04-22T04:17:26.179Z,60.00
2018-04-22T04:18:26.159Z,68.00
2018-04-22T04:19:26.138Z,72.00
2018-04-22T04:20:26.117Z,80.00
2018-04-22T04:21:26.094Z,96.00
2018-04-22T04:22:26.074Z,108.00
2018-04-22T04:23:26.052Z,120.00
2018-04-22T04:24:26.030Z,132.00
2018-04-22T04:25:26.010Z,148.00
2018-04-22T04:26:25.989Z,164.00
2018-04-22T04:27:25.968Z,184.00
2018-04-22T04:28:25.944Z,200.00
2018-04-22T04:29:25.928Z,216.00
2018-04-22T04:30:25.904Z,236.00
2018-04-22T04:31:25.882Z,256.00
2018-04-22T04:32:25.859Z,276.00
2018-04-22T04:33:25.843Z,300.00
2018-04-22T04:34:25.818Z,320.00
2018-04-22T04:35:25.800Z,348.00
2018-04-22T04:36:25.776Z,368.00
2018-04-22T04:37:25.754Z,392.00
2018-04-22T04:38:25.734Z,424.00
2018-04-22T04:39:25.731Z,448.00
2018-04-22T04:40:26.442Z,472.00
2018-04-22T04:41:25.670Z,500.00
2018-04-22T04:42:25.649Z,528.00
2018-04-22T04:43:25.641Z,552.00
2018-04-22T04:44:25.609Z,580.00
2018-04-22T04:45:25.586Z,612.00
2018-04-22T04:46:25.566Z,640.00
2018-04-22T04:47:25.549Z,668.00
2018-04-22T04:48:25.523Z,692.00
2018-04-22T04:49:25.533Z,724.00
2018-04-22T04:50:25.479Z,748.00
2018-04-22T04:51:25.458Z,776.00
2018-04-22T04:52:25.438Z,808.00
2018-04-22T04:53:25.416Z,832.00
2018-04-22T04:54:25.455Z,860.00
2018-04-22T04:55:25.375Z,884.00
2018-04-22T04:56:25.354Z,912.00
2018-04-22T04:57:25.335Z,944.00
2018-04-22T04:58:25.312Z,968.00
2018-04-22T04:59:25.295Z,996.00
2018-04-22T05:00:25.269Z,1020.00
2018-04-22T05:01:25.249Z,1044.00
2018-04-22T05:02:25.228Z,1072.00
2018-04-22T05:03:25.211Z,1100.00
2018-04-22T05:04:25.228Z,1124.00
2018-04-22T05:05:25.164Z,1148.00
2018-04-22T05:06:25.143Z,1172.00
2018-04-22T05:07:25.123Z,1196.00
2018-04-22T05:08:25.102Z,1224.00
2018-04-22T05:09:25.080Z,1248.00
2018-04-22T05:10:25.063Z,1272.00
2018-04-22T05:11:25.039Z,1296.00
2018-04-22T05:12:25.018Z,1320.00
2018-04-22T05:13:24.996Z,1344.00
2018-04-22T05:14:24.983Z,1368.00
2018-04-22T05:15:24.955Z,1392.00
2018-04-22T05:16:24.933Z,1416.00
2018-04-22T05:17:24.914Z,1440.00
2018-04-22T05:18:24.892Z,1464.00
2018-04-22T05:19:24.871Z,1488.00
2018-04-22T05:20:24.850Z,1512.00
2018-04-22T05:21:24.830Z,1532.00
2018-04-22T05:22:24.814Z,1560.00
2018-04-22T05:23:24.788Z,1584.00
2018-04-22T05:24:24.766Z,1612.00
2018-04-22T05:25:24.747Z,1636.00
2018-04-22T05:26:24.727Z,1660.00
2018-04-22T05:27:24.705Z,1684.00
2018-04-22T05:28:24.734Z,1720.00
2018-04-22T05:29:24.663Z,1772.00
2018-04-22T05:30:24.642Z,1796.00
2018-04-22T05:31:24.624Z,1788.00
2018-04-22T05:32:26.103Z,1808.00
2018-04-22T05:33:24.582Z,1828.00
2018-04-22T05:34:24.574Z,1852.00
2018-04-22T05:35:24.541Z,1876.00
2018-04-22T05:36:24.573Z,1900.00
2018-04-22T05:37:24.500Z,1920.00
2018-04-22T05:38:24.479Z,1944.00
2018-04-22T05:39:24.462Z,1964.00
2018-04-22T05:40:24.436Z,1988.00
2018-04-22T05:41:24.419Z,2008.00
2018-04-22T05:42:24.397Z,2028.00
2018-04-22T05:43:24.374Z,2048.00
2018-04-22T05:44:24.353Z,2068.00
2018-04-22T05:45:24.333Z,2088.00
2018-04-22T05:46:24.313Z,2108.00
2018-04-22T05:47:24.294Z,2128.00
2018-04-22T05:48:24.275Z,2144.00
2018-04-22T05:49:24.252Z,2160.00
2018-04-22T05:50:24.231Z,2180.00
2018-04-22T05:51:24.212Z,2192.00
2018-04-22T05:52:24.189Z,2216.00
2018-04-22T05:53:24.170Z,2232.00
2018-04-22T05:54:24.154Z,2256.00
2018-04-22T05:55:24.129Z,2268.00
2018-04-22T05:56:24.109Z,2292.00
2018-04-22T05:57:24.089Z,2308.00
2018-04-22T05:58:24.069Z,2328.00
2018-04-22T05:59:24.048Z,2344.00
2018-04-22T06:00:24.027Z,2360.00
2018-04-22T06:01:24.056Z,2376.00
2018-04-22T06:02:23.986Z,2388.00
2018-04-22T06:03:23.967Z,2408.00
2018-04-22T06:04:23.945Z,2424.00
2018-04-22T06:05:23.926Z,2440.00
2018-04-22T06:06:23.906Z,2456.00
2018-04-22T06:07:23.886Z,2468.00
2018-04-22T06:08:23.864Z,2484.00
2018-04-22T06:09:23.846Z,2500.00
2018-04-22T06:10:23.825Z,2512.00
2018-04-22T06:11:23.806Z,2528.00
2018-04-22T06:12:23.788Z,2540.00
2018-04-22T06:13:23.764Z,2552.00
2018-04-22T06:14:23.743Z,2572.00
2018-04-22T06:15:23.723Z,2584.00
2018-04-22T06:16:23.704Z,2596.00
2018-04-22T06:17:23.725Z,2612.00
2018-04-22T06:18:23.664Z,2628.00
2018-04-22T06:19:23.650Z,2636.00
2018-04-22T06:20:23.624Z,2648.00
2018-04-22T06:21:23.603Z,2668.00
2018-04-22T06:22:23.584Z,2676.00
2018-04-22T06:23:23.564Z,2680.00
2018-04-22T06:24:23.551Z,2696.00
2018-04-22T06:25:23.524Z,2708.00
2018-04-22T06:26:23.505Z,2728.00
2018-04-22T06:27:23.486Z,2744.00
2018-04-22T06:28:23.465Z,2760.00
2018-04-22T06:29:23.445Z,2772.00
2018-04-22T06:30:23.427Z,2792.00
2018-04-22T06:31:23.406Z,2804.00
2018-04-22T06:32:23.385Z,2820.00
2018-04-22T06:33:23.366Z,2832.00
2018-04-22T06:34:23.345Z,2848.00
2018-04-22T06:35:23.326Z,2864.00
2018-04-22T06:36:23.306Z,2868.00
2018-04-22T06:37:23.286Z,2880.00
2018-04-22T06:38:23.267Z,2892.00
2018-04-22T06:39:23.250Z,2908.00
2018-04-22T06:40:23.227Z,2928.00
2018-04-22T06:41:23.208Z,2936.00
2018-04-22T06:42:23.189Z,2952.00
2018-04-22T06:43:23.170Z,2968.00
2018-04-22T06:44:23.150Z,2984.00
2018-04-22T06:45:23.130Z,2996.00
2018-04-22T06:46:23.111Z,3008.00
2018-04-22T06:47:23.843Z,3024.00
2018-04-22T06:48:23.071Z,3036.00
2018-04-22T06:49:23.053Z,3048.00
2018-04-22T06:50:23.034Z,3060.00
2018-04-22T06:51:23.013Z,3072.00
2018-04-22T06:52:22.993Z,3084.00
2018-04-22T06:53:23.061Z,3100.00
2018-04-22T06:54:22.956Z,3112.00
2018-04-22T06:55:22.936Z,3124.00
2018-04-22T06:56:22.916Z,3136.00
2018-04-22T06:57:22.897Z,3144.00
2018-04-22T06:58:22.878Z,3152.00
2018-04-22T06:59:22.858Z,3168.00
2018-04-22T07:00:22.839Z,3184.00
2018-04-22T07:01:22.819Z,3188.00
2018-04-22T07:02:22.800Z,3200.00
2018-04-22T07:03:23.532Z,3204.00
2018-04-22T07:04:22.761Z,3220.00
2018-04-22T07:05:22.790Z,3228.00
2018-04-22T07:06:22.724Z,3240.00
2018-04-22T07:07:22.706Z,3248.00
2018-04-22T07:08:22.695Z,3256.00
2018-04-22T07:09:22.668Z,3260.00
2018-04-22T07:10:22.652Z,3268.00
2018-04-22T07:11:22.630Z,3272.00
2018-04-22T07:12:22.610Z,3280.00
2018-04-22T07:13:22.595Z,3292.00
2018-04-22T07:14:23.323Z,3300.00
2018-04-22T07:15:22.555Z,3316.00
2018-04-22T07:16:22.535Z,3328.00
2018-04-22T07:17:22.516Z,3344.00
2018-04-22T07:18:22.498Z,3352.00
2018-04-22T07:19:22.478Z,3368.00
2018-04-22T07:20:22.460Z,3384.00
2018-04-22T07:21:22.441Z,3380.00
2018-04-22T07:22:22.423Z,3440.00
2018-04-22T07:23:22.404Z,3408.00
2018-04-22T07:24:22.387Z,3420.00
2018-04-22T07:25:22.367Z,3428.00
2018-04-22T07:26:22.353Z,3428.00
2018-04-22T07:27:22.329Z,3432.00
2018-04-22T07:28:22.310Z,3432.00
2018-04-22T07:29:22.292Z,3440.00
2018-04-22T07:30:22.275Z,3440.00
2018-04-22T07:31:22.256Z,3448.00
2018-04-22T07:32:22.236Z,3460.00
2018-04-22T07:33:22.218Z,3464.00
2018-04-22T07:34:22.204Z,3476.00
2018-04-22T07:35:22.183Z,3488.00
2018-04-22T07:36:22.164Z,3508.00
2018-04-22T07:37:22.145Z,3524.00
2018-04-22T07:38:22.128Z,3540.00
2018-04-22T07:39:22.110Z,3560.00
2018-04-22T07:40:22.091Z,3588.00
2018-04-22T07:41:22.071Z,3604.00
2018-04-22T07:42:22.119Z,3624.00
2018-04-22T07:43:22.036Z,3672.00
2018-04-22T07:44:22.017Z,3680.00
2018-04-22T07:45:22.000Z,3680.00
2018-04-22T07:46:22.732Z,3700.00
2018-04-22T07:47:21.964Z,3704.00
2018-04-22T07:48:21.945Z,3708.00
2018-04-22T07:49:21.927Z,3704.00
2018-04-22T07:50:21.909Z,3716.00
2018-04-22T07:51:21.893Z,3696.00
2018-04-22T07:52:21.873Z,3676.00
2018-04-22T07:53:21.856Z,3676.00
2018-04-22T07:54:21.837Z,3696.00
2018-04-22T07:55:21.821Z,3712.00
2018-04-22T07:56:21.801Z,3724.00
2018-04-22T07:57:21.786Z,3748.00
2018-04-22T07:58:21.767Z,3772.00
2018-04-22T07:59:21.750Z,3684.00
2018-04-22T08:00:21.732Z,3812.00
2018-04-22T08:01:21.718Z,3844.00
2018-04-22T08:02:21.695Z,3816.00
2018-04-22T08:03:21.678Z,3796.00
2018-04-22T08:04:21.661Z,3784.00
2018-04-22T08:05:21.644Z,3776.00
2018-04-22T08:06:21.626Z,3776.00
2018-04-22T08:07:21.610Z,3768.00
2018-04-22T08:08:21.592Z,3764.00
2018-04-22T08:09:21.572Z,3768.00
2018-04-22T08:10:21.556Z,3776.00
2018-04-22T08:11:21.538Z,3664.00
2018-04-22T08:12:21.520Z,3768.00
2018-04-22T08:13:22.254Z,3764.00
2018-04-22T08:14:21.485Z,3812.00
2018-04-22T08:15:21.468Z,3804.00
2018-04-22T08:16:21.498Z,3796.00
2018-04-22T08:17:21.433Z,3804.00
2018-04-22T08:18:21.417Z,3820.00
2018-04-22T08:19:21.399Z,3848.00
2018-04-22T08:20:21.382Z,3860.00
2018-04-22T08:21:21.367Z,3872.00
2018-04-22T08:22:21.347Z,3888.00
2018-04-22T08:23:21.331Z,3900.00
2018-04-22T08:24:21.314Z,3900.00
2018-04-22T08:25:21.298Z,3900.00
2018-04-22T08:26:21.280Z,3884.00
2018-04-22T08:27:21.262Z,3868.00
2018-04-22T08:28:21.247Z,3864.00
2018-04-22T08:29:21.228Z,3872.00
2018-04-22T08:30:21.212Z,3880.00
2018-04-22T08:31:21.193Z,3872.00
2018-04-22T08:32:21.176Z,3880.00
2018-04-22T08:33:21.186Z,3896.00
2018-04-22T08:34:21.143Z,3904.00
2018-04-22T08:35:21.127Z,3912.00
2018-04-22T08:36:21.109Z,3912.00
2018-04-22T08:37:21.092Z,3904.00
2018-04-22T08:38:21.075Z,3920.00
2018-04-22T08:39:21.059Z,3916.00
2018-04-22T08:40:21.043Z,3916.00
2018-04-22T08:41:21.025Z,3924.00
2018-04-22T08:42:21.009Z,3936.00
2018-04-22T08:43:20.993Z,3936.00
2018-04-22T08:44:21.726Z,3920.00
2018-04-22T08:45:20.958Z,3940.00
2018-04-22T08:46:20.943Z,3940.00
2018-04-22T08:47:20.932Z,3940.00
2018-04-22T08:48:20.909Z,3944.00
2018-04-22T08:49:20.892Z,3952.00
2018-04-22T08:50:20.876Z,3952.00
2018-04-22T08:51:20.860Z,3952.00
2018-04-22T08:52:20.843Z,3908.00
2018-04-22T08:53:20.827Z,3960.00
2018-04-22T08:54:20.811Z,3948.00
2018-04-22T08:55:24.547Z,3944.00
2018-04-22T08:56:20.778Z,3936.00
2018-04-22T08:57:20.760Z,3920.00
2018-04-22T08:58:20.746Z,3924.00
2018-04-22T08:59:20.729Z,3924.00
2018-04-22T09:00:20.711Z,3868.00
2018-04-22T09:01:21.446Z,3944.00
2018-04-22T09:02:20.679Z,3920.00
2018-04-22T09:03:20.664Z,3904.00
2018-04-22T09:04:20.646Z,3920.00
2018-04-22T09:05:20.631Z,3868.00
2018-04-22T09:06:20.616Z,3868.00
2018-04-22T09:07:20.600Z,3880.00
2018-04-22T09:08:20.586Z,3916.00
2018-04-22T09:09:20.566Z,3912.00
2018-04-22T09:10:20.550Z,3908.00
2018-04-22T09:11:20.535Z,3904.00
2018-04-22T09:12:21.268Z,3912.00
2018-04-22T09:13:20.502Z,3924.00
2018-04-22T09:14:20.487Z,3908.00
2018-04-22T09:15:20.471Z,3920.00
2018-04-22T09:16:20.498Z,3936.00
2018-04-22T09:17:20.439Z,3936.00
2018-04-22T09:18:20.422Z,3932.00
2018-04-22T09:19:20.406Z,3940.00
2018-04-22T09:20:20.391Z,3936.00
2018-04-22T09:21:20.375Z,3960.00
2018-04-22T09:22:20.360Z,3952.00
2018-04-22T09:23:25.599Z,3952.00
2018-04-22T09:24:20.327Z,3948.00
2018-04-22T09:25:20.313Z,3952.00
2018-04-22T09:26:20.297Z,3952.00
2018-04-22T09:27:20.282Z,3960.00
2018-04-22T09:28:20.264Z,3944.00
2018-04-22T09:29:20.998Z,3940.00
2018-04-22T09:30:20.233Z,3916.00
2018-04-22T09:31:20.217Z,3948.00
2018-04-22T09:32:20.202Z,3948.00
2018-04-22T09:33:20.236Z,3948.00
2018-04-22T09:34:20.173Z,3944.00
2018-04-22T09:35:20.154Z,3956.00
2018-04-22T09:36:20.141Z,3960.00
2018-04-22T09:37:20.123Z,3956.00
2018-04-22T09:38:20.124Z,3960.00
2018-04-22T09:39:20.093Z,3936.00
2018-04-22T09:40:20.075Z,3928.00
2018-04-22T09:41:20.060Z,3908.00
2018-04-22T09:42:20.045Z,3888.00
2018-04-22T09:43:20.030Z,3860.00
2018-04-22T09:44:20.013Z,3884.00
2018-04-22T09:45:23.755Z,3872.00
2018-04-22T09:46:19.986Z,3852.00
2018-04-22T09:47:19.969Z,3820.00
2018-04-22T09:48:19.952Z,3832.00
2018-04-22T09:49:19.936Z,3828.00
2018-04-22T09:50:19.921Z,3852.00
2018-04-22T09:51:19.905Z,3856.00
2018-04-22T09:52:19.891Z,3888.00
2018-04-22T09:53:19.893Z,3852.00
2018-04-22T09:54:19.859Z,3832.00
2018-04-22T09:55:19.847Z,3888.00
2018-04-22T09:56:19.828Z,3828.00
2018-04-22T09:57:19.813Z,3816.00
2018-04-22T09:58:19.799Z,3824.00
2018-04-22T09:59:19.784Z,3832.00
2018-04-22T10:00:19.768Z,3836.00
2018-04-22T10:01:19.752Z,3856.00
2018-04-22T10:02:19.737Z,3864.00
2018-04-22T10:03:19.722Z,3876.00
2018-04-22T10:04:19.705Z,3880.00
2018-04-22T10:05:19.691Z,3884.00
2018-04-22T10:06:19.676Z,3892.00
2018-04-22T10:07:19.662Z,3904.00
2018-04-22T10:08:19.645Z,3908.00
2018-04-22T10:09:19.631Z,3908.00
2018-04-22T10:10:19.615Z,3908.00
2018-04-22T10:11:19.600Z,3916.00
2018-04-22T10:12:19.585Z,3944.00
2018-04-22T10:13:19.571Z,3920.00
2018-04-22T10:14:19.555Z,3976.00
2018-04-22T10:15:19.541Z,3980.00
2018-04-22T10:16:19.526Z,3984.00
2018-04-22T10:17:19.512Z,4004.00
2018-04-22T10:18:19.496Z,3988.00
2018-04-22T10:19:19.481Z,3992.00
2018-04-22T10:20:19.467Z,3996.00
2018-04-22T10:21:19.456Z,4008.00
2018-04-22T10:22:19.438Z,4008.00
2018-04-22T10:23:19.426Z,4024.00
2018-04-22T10:24:19.408Z,4024.00
2018-04-22T10:25:19.392Z,4060.00
2018-04-22T10:26:19.378Z,4064.00
2018-04-22T10:27:19.363Z,4076.00
2018-04-22T10:28:19.348Z,4092.00
2018-04-22T10:29:19.335Z,4112.00
2018-04-22T10:30:19.326Z,4120.00
2018-04-22T10:31:19.305Z,4128.00
2018-04-22T10:32:19.291Z,4140.00
2018-04-22T10:33:19.280Z,4164.00
2018-04-22T10:34:19.262Z,4160.00
2018-04-22T10:35:19.248Z,4168.00
2018-04-22T10:36:19.232Z,4188.00
2018-04-22T10:37:19.219Z,4184.00
2018-04-22T10:38:19.203Z,4200.00
2018-04-22T10:39:19.192Z,4216.00
2018-04-22T10:40:19.174Z,4212.00
2018-04-22T10:41:19.160Z,4248.00
2018-04-22T10:42:19.145Z,4260.00
2018-04-22T10:43:19.132Z,4252.00
2018-04-22T10:44:19.117Z,4284.00
2018-04-22T10:45:19.102Z,4284.00
2018-04-22T10:46:19.089Z,4316.00
2018-04-22T10:47:19.075Z,4344.00
2018-04-22T10:48:19.060Z,4344.00
2018-04-22T10:49:19.046Z,4360.00
2018-04-22T10:50:19.032Z,4364.00
2018-04-22T10:51:19.018Z,4384.00
2018-04-22T10:52:19.003Z,4384.00
2018-04-22T10:53:18.988Z,4396.00
2018-04-22T10:54:18.972Z,4416.00
2018-04-22T10:55:18.964Z,4424.00
2018-04-22T10:56:18.944Z,4448.00
2018-04-22T10:57:18.930Z,4448.00
2018-04-22T10:58:18.918Z,4452.00
2018-04-22T10:59:18.902Z,4440.00
2018-04-22T11:00:18.890Z,4444.00
2018-04-22T11:01:18.874Z,4472.00
2018-04-22T11:02:18.859Z,4480.00
2018-04-22T11:03:18.844Z,4496.00
2018-04-22T11:04:19.581Z,4504.00
2018-04-22T11:05:18.817Z,4540.00
2018-04-22T11:06:18.802Z,4540.00
2018-04-22T11:07:18.839Z,4560.00
2018-04-22T11:08:18.774Z,4596.00
2018-04-22T11:09:18.759Z,4556.00
2018-04-22T11:10:18.746Z,4588.00
2018-04-22T11:11:18.733Z,4608.00
2018-04-22T11:12:18.718Z,4648.00
2018-04-22T11:13:18.707Z,4660.00
2018-04-22T11:14:18.735Z,4664.00
2018-04-22T11:15:18.677Z,4532.00
2018-04-22T11:16:18.664Z,4644.00
2018-04-22T11:17:18.648Z,4628.00
2018-04-22T11:18:18.636Z,4628.00
2018-04-22T11:19:18.621Z,4632.00
2018-04-22T11:20:20.108Z,4616.00
2018-04-22T11:21:18.592Z,4636.00
2018-04-22T11:22:18.580Z,4664.00
2018-04-22T11:23:18.564Z,4664.00
2018-04-22T11:24:18.550Z,4652.00
2018-04-22T11:25:18.537Z,4596.00
2018-04-22T11:26:18.525Z,4756.00
2018-04-22T11:27:18.510Z,4792.00
2018-04-22T11:28:18.497Z,4828.00
2018-04-22T11:29:18.485Z,4800.00
2018-04-22T11:30:18.469Z,4732.00
2018-04-22T11:31:18.459Z,4676.00
2018-04-22T11:32:18.443Z,4636.00
2018-04-22T11:33:18.428Z,4644.00
2018-04-22T11:34:18.416Z,4672.00
2018-04-22T11:35:18.403Z,4680.00
2018-04-22T11:36:18.388Z,4716.00
2018-04-22T11:37:18.376Z,4736.00
2018-04-22T11:38:18.361Z,4776.00
2018-04-22T11:39:18.348Z,4772.00
2018-04-22T11:40:18.335Z,4784.00
2018-04-22T11:41:18.322Z,4780.00
2018-04-22T11:42:18.308Z,4784.00
2018-04-22T11:43:18.295Z,4756.00
2018-04-22T11:44:18.282Z,4732.00
2018-04-22T11:45:18.269Z,4780.00
2018-04-22T11:46:18.255Z,4776.00
2018-04-22T11:47:18.242Z,4756.00
2018-04-22T11:48:18.229Z,4744.00
2018-04-22T11:49:18.213Z,4744.00
2018-04-22T11:50:18.202Z,4752.00
2018-04-22T11:51:18.187Z,4748.00
2018-04-22T11:52:18.174Z,4736.00
2018-04-22T11:53:18.160Z,4712.00
2018-04-22T11:54:18.146Z,4740.00
2018-04-22T11:55:18.133Z,4788.00
2018-04-22T11:56:18.121Z,4796.00
2018-04-22T11:57:18.107Z,4816.00
2018-04-22T11:58:18.093Z,4788.00
2018-04-22T11:59:18.081Z,4812.00
2018-04-22T12:00:18.066Z,4856.00
2018-04-22T12:01:18.054Z,4872.00
2018-04-22T12:02:18.041Z,4904.00
2018-04-22T12:03:18.027Z,4892.00
2018-04-22T12:04:18.013Z,4924.00
2018-04-22T12:05:18.005Z,4924.00
2018-04-22T12:06:17.986Z,4940.00
2018-04-22T12:07:17.979Z,4948.00
2018-04-22T12:08:17.961Z,4968.00
2018-04-22T12:09:17.947Z,4928.00
2018-04-22T12:10:17.934Z,4968.00
2018-04-22T12:11:17.921Z,5008.00
2018-04-22T12:12:17.908Z,5024.00
2018-04-22T12:13:17.895Z,5064.00
2018-04-22T12:14:17.881Z,5104.00
2018-04-22T12:15:17.869Z,5096.00
2018-04-22T12:16:17.856Z,5104.00
2018-04-22T12:17:17.842Z,5108.00
2018-04-22T12:18:17.830Z,5112.00
2018-04-22T12:19:17.819Z,5132.00
2018-04-22T12:20:17.804Z,5160.00
2018-04-22T12:21:17.791Z,5168.00
2018-04-22T12:22:17.780Z,5156.00
2018-04-22T12:23:17.766Z,5184.00
2018-04-22T12:24:17.752Z,5204.00
2018-04-22T12:25:17.741Z,5200.00
2018-04-22T12:26:17.729Z,5240.00
2018-04-22T12:27:17.715Z,5256.00
2018-04-22T12:28:17.704Z,5244.00
2018-04-22T12:29:17.690Z,5252.00
2018-04-22T12:30:17.676Z,5272.00